You are not logged in, Click here to log in
北京首都國際機場(PEK) / ZBAA 大陸北京市顺义区
ICAO: ZBAA Country: 大陸北京市顺义区
Latitude: 40.0799 Longitude: 116.603
Total Arrivals: 52 Total Departures: 62
Latest Arrival: CA1210 (ZLXY-ZBAA)Arthur. Kung Latest Departure: CA1391 (ZBAA-ZHCC)Arthur. Kung
Scenery:
METAR : ZBAA 110400Z VRB01MPS 3500 -RA BR FEW010 OVC040 23/21 Q1008 NOSIG

北京首都國際機場(PEK)

You are accessing this site from IP address 34.229.119.29. Virtual Airline. CMS by phpVMS.Website designed by Zumeweb and edited by Theo Bearman.
There is 1 User(s) Online: | Lun Wang | and 29 Guest(s) Online.
All information on this site is for fight simulation purposes only. This site is for flight logging for pilots of Virtual Airline&模擬飛行論壇 FlySim only.